Argyle, GA

9:34 PM EST on March 04, 2015 (GMT -0500)
Homerville | Change Station
CLOSE
Current Station
Airport
Location: Homerville,
Elevation: 187 ft
Nearby Weather Stations

Elev 187 ft 31.06 °N, 82.77 °W | Updated 39 minutes ago

Scattered Clouds
Scattered Clouds
72 °F
Feels Like 72 °F
N
4
Wind Variable Wind from SW

Today
High -- | Low -- °F
--% Chance of Precip.
Yesterday
High -- | Low -- °F
Precip. -- in
6:54 AM 6:31 PM
Full, 100% visible
Pressure 30.06 in
Visibility 10.0 miles
Clouds Scattered Clouds 2400 ft
Dew Point 66 °F
Humidity 83%
Rainfall 0.00 in
Snow Depth Not available.
UV 0 out of 12
Pollen 10.60 out of 12
Air Quality Not available.
Flu Activity Not available.
METAR KHOE 050155Z AUTO 22003KT 10SM SCT024 22/19 A3006 RMK AO2

More Conditions Fewer Conditions

Pressure 30.06 in
Visibility 10.0 miles
Clouds Scattered Clouds 2400 ft
Dew Point 66 °F
Humidity 83%
Rainfall 0.00 in
Snow Depth Not available.
UV 0 out of 12
Pollen 10.60 out of 12
Air Quality Not available.
Flu Activity Not available.
METAR KHOE 050155Z AUTO 22003KT 10SM SCT024 22/19 A3006 RMK AO2

More Conditions Fewer Conditions

10-Day Weather Forecast

Almanac

Astronomy

Mar. 04, 2015 Rise Set
Actual Time
Civil Twilight
Nautical Twilight
Astronomical Twilight
Moon
Length of Visible Light
Length of Day
Tomorrow will be .
, % of the Moon is Illuminated

Today's Extremes

State Highs State Lows

Community

WunderPhotos

Upload Photos

1,802,631 photos uploaded!

WunderBlogs® & News

Nearby

Air Quality

  Air Quality AQ Index Pollutant
Not available.

Snow Depth

Station Depth Elevation

Earthquake Activity

City Distance Mag. Time & Date
Minimum magnitude displayed is 2.5.

Coastal Water Temperatures

Place Temperature

Nearby Weather Stations